Terminal Aerodrome Forecast
Issued by NWS North Platte, NE

Home | Current Version | Previous Version | Text Only | Print | Product List | Glossary On
Versions: 1 2 3 4 5 6 7 8 9 10 11 12 13 14
000
FTUS43 KLBF 301100
TAFLBF
TAF
KLBF 301120Z 3012/3112 28008KT P6SM SKC
     FM301300 31012KT P6SM SKC
     FM301600 34016G24KT P6SM FEW090
     FM310000 01009KT P6SM SKC
     FM310600 04008KT P6SM SCT020=

USA.gov is the U.S. government's official web portal to all federal, state and local government web resources and services.